Terminal Aerodrome Forecast
Issued by NWS

Home | Current Version | Previous Version | Text Only | Print | Product List | Glossary On
Versions: 1 2 3 4 5 6 7 8 9 10 11 12 13 14 15 16 17 18 19 20 21 22 23 24 25 26 27 28
737
FTUS41 KOKX 042030 AAA
TAFSWF
TAF AMD
KSWF 042030Z 0421/0524 VRB05KT P6SM SCT250
     FM050600 13004KT 4SM -SN SCT040 OVC080
     FM050800 14004KT 2SM -SN SCT009 BKN015
     FM051400 23006KT 5SM BR SCT009 BKN015
     FM051900 29010KT P6SM SCT025 SCT250
      AMD NOT SKED=

USA.gov is the U.S. government's official web portal to all federal, state and local government web resources and services.